createdAt,value
2022-09-17T00:00:40.489Z,671.20
2022-09-17T00:06:27.620Z,704.77
2022-09-17T00:09:38.683Z,441.47
2022-09-17T00:12:32.616Z,468.37
2022-09-17T00:15:23.205Z,417.77
2022-09-17T00:18:18.252Z,406.10
2022-09-17T00:21:09.507Z,618.90
2022-09-17T00:24:00.976Z,654.73
2022-09-17T00:26:52.394Z,617.87
2022-09-17T00:29:43.525Z,631.93
2022-09-17T00:32:34.385Z,597.80
2022-09-17T00:39:08.804Z,644.57
2022-09-17T00:44:51.496Z,677.73
2022-09-17T00:50:40.781Z,690.10
2022-09-17T00:56:28.341Z,668.63
2022-09-17T00:59:24.575Z,699.57
2022-09-17T01:02:17.070Z,685.57
2022-09-17T01:05:08.333Z,516.50
2022-09-17T01:08:09.111Z,493.13
2022-09-17T01:11:21.882Z,529.42
2022-09-17T01:14:26.906Z,716.90
2022-09-17T01:17:24.175Z,685.90
2022-09-17T01:20:58.458Z,477.70
2022-09-17T01:27:59.004Z,651.00
2022-09-17T01:31:07.877Z,638.07
2022-09-17T01:34:05.777Z,709.83
2022-09-17T01:37:06.822Z,670.70
2022-09-17T01:40:08.061Z,717.90
2022-09-17T01:43:08.125Z,683.90
2022-09-17T01:46:06.740Z,693.77
2022-09-17T01:49:03.518Z,722.37
2022-09-17T01:52:07.240Z,708.33
2022-09-17T01:55:12.826Z,686.77
2022-09-17T01:58:09.332Z,730.87
2022-09-17T02:01:09.409Z,714.40
2022-09-17T02:04:07.729Z,717.50
2022-09-17T02:07:04.783Z,910.30
2022-09-17T02:10:00.848Z,758.50
2022-09-17T02:12:51.725Z,742.07
2022-09-17T02:15:46.965Z,983.80
2022-09-17T02:18:46.924Z,756.07
2022-09-17T02:21:55.793Z,778.57
2022-09-17T02:24:53.446Z,924.83
2022-09-17T02:31:11.470Z,797.50
2022-09-17T02:34:06.956Z,999.90
2022-09-17T02:36:58.584Z,999.90
2022-09-17T02:39:48.871Z,999.90
2022-09-17T02:42:51.940Z,998.10
2022-09-17T02:45:55.346Z,989.93
2022-09-17T02:49:11.264Z,999.90
2022-09-17T02:52:10.957Z,903.37
2022-09-17T02:55:10.191Z,999.90
2022-09-17T02:58:09.985Z,968.53
2022-09-17T03:01:07.364Z,898.30
2022-09-17T03:04:00.207Z,861.77
2022-09-17T03:06:56.770Z,775.13
2022-09-17T03:09:47.917Z,748.27
2022-09-17T03:12:38.965Z,814.90
2022-09-17T03:15:32.258Z,806.37
2022-09-17T03:18:24.606Z,800.33
2022-09-17T03:21:14.891Z,891.80
2022-09-17T03:24:09.313Z,869.17
2022-09-17T03:29:53.028Z,796.90
2022-09-17T03:32:43.909Z,669.27
2022-09-17T03:35:34.918Z,666.00
2022-09-17T03:38:25.255Z,666.53
2022-09-17T03:41:17.986Z,667.93
2022-09-17T03:44:10.659Z,713.07
2022-09-17T03:47:01.625Z,712.73
2022-09-17T03:49:52.456Z,691.60
2022-09-17T03:52:42.622Z,734.73
2022-09-17T03:55:32.925Z,802.80
2022-09-17T03:58:39.726Z,809.93
2022-09-17T04:01:32.467Z,700.97
2022-09-17T04:04:23.775Z,767.47
2022-09-17T04:07:14.137Z,809.63
2022-09-17T04:10:05.807Z,804.47
2022-09-17T04:12:58.080Z,779.83
2022-09-17T04:15:53.520Z,661.03
2022-09-17T04:18:43.809Z,699.20
2022-09-17T04:21:34.150Z,737.03
2022-09-17T04:24:25.730Z,824.13
2022-09-17T04:27:15.927Z,788.27
2022-09-17T04:30:06.342Z,879.40
2022-09-17T04:32:59.110Z,758.30
2022-09-17T04:35:49.576Z,711.10
2022-09-17T04:38:40.910Z,699.77
2022-09-17T04:41:31.325Z,747.03
2022-09-17T04:50:05.062Z,794.67
2022-09-17T04:52:55.290Z,805.20
2022-09-17T04:55:52.772Z,866.23
2022-09-17T04:58:43.322Z,812.47
2022-09-17T05:01:42.744Z,749.83
2022-09-17T05:04:33.311Z,687.73
2022-09-17T05:07:27.329Z,693.07
2022-09-17T05:10:20.224Z,872.13
2022-09-17T05:13:11.580Z,781.03
2022-09-17T05:16:02.054Z,897.57
2022-09-17T05:18:52.389Z,873.60
2022-09-17T05:25:15.389Z,901.37
2022-09-17T05:28:05.764Z,788.43
2022-09-17T05:30:55.827Z,915.67
2022-09-17T05:33:46.956Z,901.17
2022-09-17T05:36:37.178Z,808.33
2022-09-17T05:39:28.269Z,899.23
2022-09-17T05:42:21.144Z,849.17
2022-09-17T05:45:12.062Z,835.57
2022-09-17T05:48:03.677Z,633.83
2022-09-17T05:50:53.865Z,659.13
2022-09-17T05:53:43.990Z,764.43
2022-09-17T05:56:35.073Z,886.70
2022-09-17T05:59:30.598Z,828.00
2022-09-17T06:02:21.008Z,857.07
2022-09-17T06:05:12.274Z,927.63
2022-09-17T06:08:02.605Z,820.67
2022-09-17T06:10:52.814Z,895.90
2022-09-17T06:13:44.149Z,917.87
2022-09-17T06:19:45.883Z,768.17
2022-09-17T06:28:51.747Z,999.90
2022-09-17T06:34:32.772Z,999.90
2022-09-17T06:37:28.838Z,999.90
2022-09-17T06:43:30.808Z,999.90
2022-09-17T06:46:22.447Z,999.90
2022-09-17T07:18:19.758Z,999.90
2022-09-17T07:21:10.920Z,999.90
2022-09-17T07:26:53.852Z,999.90
2022-09-17T07:29:44.219Z,999.90
2022-09-17T07:32:36.051Z,999.90
2022-09-17T07:35:30.377Z,999.90
2022-09-17T07:38:20.765Z,999.90
2022-09-17T07:41:25.977Z,999.90
2022-09-17T07:44:16.093Z,999.90
2022-09-17T07:47:12.192Z,999.90
2022-09-17T07:50:03.157Z,999.90
2022-09-17T07:52:57.227Z,999.90
2022-09-17T07:59:12.613Z,999.90
2022-09-17T08:02:07.610Z,999.90
2022-09-17T08:05:01.337Z,999.90
2022-09-17T08:16:44.877Z,999.90
2022-09-17T08:34:44.404Z,999.90
2022-09-17T08:37:40.038Z,999.90
2022-09-17T08:40:32.486Z,999.90
2022-09-17T08:43:33.269Z,999.90
2022-09-17T08:46:29.438Z,999.90
2022-09-17T08:49:31.206Z,999.90
2022-09-17T08:55:54.179Z,999.90
2022-09-17T09:05:20.179Z,999.90
2022-09-17T09:08:25.398Z,963.53
2022-09-17T09:21:10.243Z,999.90
2022-09-17T09:24:00.956Z,999.90
2022-09-17T09:27:06.269Z,999.90
2022-09-17T09:30:18.105Z,999.90
2022-09-17T09:36:06.123Z,999.90
2022-09-17T09:49:27.122Z,999.90
2022-09-17T09:58:06.109Z,999.90
2022-09-17T10:11:09.436Z,999.90
2022-09-17T10:14:40.059Z,999.90
2022-09-17T10:17:50.466Z,999.90
2022-09-17T10:21:07.552Z,999.90
2022-09-17T10:23:59.446Z,999.90
2022-09-17T10:39:38.413Z,999.90
2022-09-17T11:07:14.947Z,999.90
2022-09-17T11:10:20.960Z,999.90
2022-09-17T11:25:44.412Z,999.90
2022-09-17T11:53:12.295Z,894.63
2022-09-17T11:56:16.835Z,913.57
2022-09-17T12:08:48.210Z,915.97
2022-09-17T12:59:25.797Z,672.23
2022-09-17T13:08:16.761Z,468.70
2022-09-17T13:16:45.969Z,463.40
2022-09-17T15:35:22.607Z,441.93
2022-09-17T15:38:37.104Z,446.10
2022-09-17T15:44:31.128Z,362.30
2022-09-17T15:56:34.647Z,445.63
2022-09-17T15:59:31.975Z,458.10
2022-09-17T16:05:57.361Z,430.13
2022-09-17T16:45:29.165Z,415.70
2022-09-17T17:01:56.696Z,445.70
2022-09-17T17:14:11.516Z,416.33
2022-09-17T19:20:02.173Z,493.37
2022-09-17T20:27:50.957Z,531.47
2022-09-17T20:42:36.551Z,482.23
2022-09-17T20:48:33.587Z,489.27
2022-09-17T21:22:43.382Z,435.00
2022-09-17T21:34:38.177Z,380.90
2022-09-17T21:43:39.470Z,431.47
2022-09-17T21:46:36.982Z,386.00
2022-09-17T21:52:36.652Z,458.97
2022-09-17T21:55:27.658Z,441.43
2022-09-17T22:01:17.067Z,430.77
2022-09-17T22:04:07.380Z,438.27
2022-09-17T22:12:43.414Z,398.17
2022-09-17T22:18:32.301Z,442.87
2022-09-17T22:21:29.349Z,430.17
2022-09-17T22:24:25.723Z,443.80
2022-09-17T22:27:17.402Z,443.20
2022-09-17T22:33:13.612Z,418.10
2022-09-17T22:36:12.032Z,416.77
2022-09-17T22:39:03.032Z,377.10
2022-09-17T22:44:54.110Z,413.70
2022-09-17T22:47:44.883Z,439.90
2022-09-17T22:50:38.783Z,417.73
2022-09-17T22:53:33.545Z,426.70
2022-09-17T22:56:25.511Z,349.47
2022-09-17T22:59:17.708Z,353.20
2022-09-17T23:02:15.422Z,442.60
2022-09-17T23:07:52.875Z,359.43
2022-09-17T23:10:54.436Z,370.27
2022-09-17T23:13:57.498Z,406.37
2022-09-17T23:16:52.629Z,420.20
2022-09-17T23:25:36.645Z,443.43
2022-09-17T23:28:51.615Z,426.80
2022-09-17T23:34:59.055Z,463.87
2022-09-17T23:52:50.502Z,486.20
